Time;durP1;ratioP1;P1;durP2;ratioP2;P2;SDS_P1;SDS_P2;PMS_P1;PMS_P2;Temp;Humidity;BMP_temperature;BMP_pressure;BME280_temperature;BME280_humidity;BME280_pressure;Samples;Min_cycle;Max_cycle;Signal;HPM_P1;HPM_P2
2022/09/26 00:01:19;;;;;;;7.40;3.70;;;11.40;99.90;;;;;;5051687;28;20113;-57
2022/09/26 00:03:46;;;;;;;4.72;3.22;;;11.40;99.90;;;;;;5051892;28;20048;-57
2022/09/26 00:06:12;;;;;;;7.13;3.80;;;11.40;99.90;;;;;;5051963;28;20033;-56
2022/09/26 00:08:38;;;;;;;6.82;3.88;;;11.40;99.90;;;;;;5051322;28;20031;-57
2022/09/26 00:11:07;;;;;;;7.20;3.70;;;11.40;99.90;;;;;;5051918;28;20043;-53
2022/09/26 00:13:36;;;;;;;6.45;3.53;;;11.40;99.90;;;;;;5052003;28;20013;-56
2022/09/26 00:16:03;;;;;;;6.35;3.58;;;11.40;99.90;;;;;;5051238;28;20067;-58
2022/09/26 00:18:29;;;;;;;8.38;4.00;;;11.40;99.90;;;;;;5051887;28;20025;-54
2022/09/26 00:21:12;;;;;;;8.02;3.92;;;11.40;99.90;;;;;;5051781;28;20595;-59
2022/09/26 00:23:38;;;;;;;6.55;3.25;;;11.30;99.90;;;;;;5051227;28;20112;-55
2022/09/26 00:26:04;;;;;;;6.32;3.20;;;11.30;99.90;;;;;;5051944;28;20025;-57
2022/09/26 00:28:31;;;;;;;7.00;3.67;;;11.30;99.90;;;;;;5051723;28;20377;-56
2022/09/26 00:31:03;;;;;;;6.22;3.40;;;11.30;99.90;;;;;;5051193;28;20106;-58
2022/09/26 00:33:28;;;;;;;5.20;3.28;;;11.30;99.90;;;;;;5051716;28;20021;-61
2022/09/26 00:35:54;;;;;;;7.38;3.88;;;11.40;99.90;;;;;;5051506;28;20469;-49
2022/09/26 00:38:20;;;;;;;6.80;3.97;;;11.40;99.90;;;;;;5051579;28;20025;-55
2022/09/26 00:40:47;;;;;;;7.57;4.13;;;11.40;99.90;;;;;;5059410;28;20027;-57
2022/09/26 00:43:46;;;;;;;7.07;3.88;;;11.40;99.90;;;;;;5053894;28;20025;-58
2022/09/26 00:46:23;;;;;;;6.90;3.75;;;11.40;99.90;;;;;;5052106;28;20123;-61
2022/09/26 00:49:27;;;;;;;6.43;3.92;;;11.40;99.90;;;;;;5053718;28;20127;-61
2022/09/26 00:52:08;;;;;;;7.45;4.18;;;11.50;99.90;;;;;;5054624;28;20037;-59
2022/09/26 00:54:36;;;;;;;7.47;4.65;;;11.50;99.90;;;;;;5054789;28;20132;-56
2022/09/26 00:57:10;;;;;;;9.10;5.75;;;11.50;99.90;;;;;;5054541;28;20029;-59
2022/09/26 00:59:42;;;;;;;8.38;4.28;;;11.50;99.90;;;;;;5055021;28;20021;-62
2022/09/26 01:02:08;;;;;;;7.20;4.53;;;11.50;99.90;;;;;;5055407;28;20032;-61
2022/09/26 01:04:37;;;;;;;10.30;5.90;;;11.50;99.90;;;;;;5054452;28;20017;-59
2022/09/26 01:07:07;;;;;;;9.00;5.25;;;11.50;99.90;;;;;;5055121;28;20377;-59
2022/09/26 01:09:33;;;;;;;8.23;4.43;;;11.50;99.90;;;;;;5054743;28;20027;-59
2022/09/26 01:12:01;;;;;;;8.18;4.15;;;11.60;99.90;;;;;;5054367;28;20628;-62
2022/09/26 01:14:27;;;;;;;6.25;4.00;;;11.60;99.90;;;;;;5053788;28;20083;-60
2022/09/26 01:16:54;;;;;;;6.00;3.28;;;11.60;99.90;;;;;;5054737;28;20025;-59
2022/09/26 01:19:42;;;;;;;6.20;3.67;;;11.60;99.90;;;;;;5053977;28;20031;-63
2022/09/26 01:22:49;;;;;;;4.80;3.00;;;11.60;99.90;;;;;;5054500;28;20021;-63
2022/09/26 01:25:33;;;;;;;5.22;3.08;;;11.60;99.90;;;;;;5031909;28;20936;-60
2022/09/26 01:28:24;;;;;;;8.07;3.80;;;11.60;99.90;;;;;;5033268;28;20029;-59
2022/09/26 01:30:59;;;;;;;5.45;3.30;;;11.70;99.90;;;;;;5034111;28;20059;-56
2022/09/26 01:33:48;;;;;;;7.53;3.90;;;11.70;99.90;;;;;;5033848;28;20048;-64
2022/09/26 01:36:41;;;;;;;6.28;3.05;;;11.60;99.90;;;;;;5055473;28;20122;-56
2022/09/26 01:39:33;;;;;;;6.05;3.00;;;11.60;99.90;;;;;;5062128;28;20029;-55
2022/09/26 01:42:17;;;;;;;5.40;3.22;;;11.60;99.90;;;;;;5051456;28;20057;-61
2022/09/26 01:45:02;;;;;;;7.97;3.38;;;11.60;99.90;;;;;;5054143;28;20028;-63
2022/09/26 01:47:58;;;;;;;8.23;3.50;;;11.60;99.90;;;;;;5053537;28;20033;-57
2022/09/26 01:50:48;;;;;;;8.20;3.83;;;11.60;99.90;;;;;;5053810;28;20385;-60
2022/09/26 01:53:21;;;;;;;6.95;3.50;;;11.60;99.90;;;;;;5053049;28;20052;-56
2022/09/26 01:56:04;;;;;;;7.72;3.47;;;11.60;99.90;;;;;;5054106;28;20104;-58
2022/09/26 01:58:35;;;;;;;5.72;3.42;;;11.60;99.90;;;;;;5054159;28;20109;-57
2022/09/26 02:01:07;;;;;;;6.78;2.90;;;11.60;99.90;;;;;;5052250;28;20481;-56
2022/09/26 02:03:38;;;;;;;6.45;3.78;;;11.60;99.90;;;;;;5053709;28;20420;-60
2022/09/26 02:06:09;;;;;;;6.07;3.47;;;11.60;99.90;;;;;;5053719;28;20017;-60
2022/09/26 02:08:40;;;;;;;6.43;3.90;;;11.60;99.90;;;;;;5053046;28;20388;-59
2022/09/26 02:11:16;;;;;;;8.50;4.30;;;11.60;99.90;;;;;;5053407;28;20513;-59
2022/09/26 02:13:54;;;;;;;9.60;4.45;;;11.60;99.90;;;;;;5053700;28;20099;-56
2022/09/26 02:16:29;;;;;;;7.05;4.45;;;11.60;99.90;;;;;;5052924;28;20124;-57
2022/09/26 02:19:06;;;;;;;10.85;6.50;;;11.60;99.90;;;;;;5053405;28;20512;-59
2022/09/26 02:21:32;;;;;;;12.75;8.48;;;11.60;99.90;;;;;;5052751;28;20033;-57
2022/09/26 02:23:58;;;;;;;17.80;10.75;;;11.60;99.90;;;;;;5053489;28;20104;-56
2022/09/26 02:26:23;;;;;;;21.50;10.70;;;11.60;99.90;;;;;;5053407;28;20021;-57
2022/09/26 02:28:49;;;;;;;15.82;8.70;;;11.60;99.90;;;;;;5052705;28;20029;-58
2022/09/26 02:31:21;;;;;;;16.83;10.38;;;11.60;99.90;;;;;;5053222;28;20069;-57
2022/09/26 02:33:52;;;;;;;16.67;8.90;;;11.50;99.90;;;;;;5053229;28;20017;-57
2022/09/26 02:36:19;;;;;;;9.75;6.53;;;11.50;99.90;;;;;;5052830;28;20060;-57
2022/09/26 02:38:46;;;;;;;10.57;7.70;;;11.50;99.90;;;;;;5052914;28;20017;-57
2022/09/26 02:41:21;;;;;;;9.50;5.97;;;11.50;99.90;;;;;;5053153;28;20035;-57
2022/09/26 02:44:05;;;;;;;7.93;5.40;;;11.50;99.90;;;;;;5052402;28;20059;-56
2022/09/26 02:46:52;;;;;;;8.48;3.70;;;11.50;99.90;;;;;;5053249;28;20057;-57
2022/09/26 02:50:07;;;;;;;6.70;4.47;;;11.50;99.90;;;;;;5052915;28;20112;-56
2022/09/26 02:53:01;;;;;;;7.90;4.10;;;11.50;99.90;;;;;;5031139;28;20488;-55
2022/09/26 02:55:48;;;;;;;7.38;3.42;;;11.50;99.90;;;;;;5049687;28;20043;-59
2022/09/26 02:58:36;;;;;;;7.68;3.95;;;11.50;99.90;;;;;;5052768;28;20032;-64
2022/09/26 03:01:18;;;;;;;10.38;3.92;;;11.50;99.90;;;;;;5052738;28;20491;-63
2022/09/26 03:03:52;;;;;;;;;;;11.50;99.90;;;;;;5052797;28;20036;-65
2022/09/26 03:06:23;;;;;;;7.45;3.40;;;11.60;99.90;;;;;;5052903;28;20394;-64
2022/09/26 03:08:50;;;;;;;5.72;3.22;;;11.60;99.90;;;;;;5052907;28;20025;-63
2022/09/26 03:11:20;;;;;;;6.60;3.30;;;11.60;99.90;;;;;;5051678;28;20495;-63
2022/09/26 03:13:49;;;;;;;9.25;3.28;;;11.60;99.90;;;;;;5052895;28;20385;-63
2022/09/26 03:16:16;;;;;;;6.53;3.65;;;11.60;99.90;;;;;;5052743;28;20025;-60
2022/09/26 03:19:10;;;;;;;6.10;3.40;;;11.60;99.90;;;;;;5052024;28;20032;-62
2022/09/26 03:21:36;;;;;;;6.32;3.05;;;11.60;99.90;;;;;;5044582;28;20033;-61
2022/09/26 03:24:02;;;;;;;5.43;3.17;;;11.60;99.90;;;;;;5052506;28;20529;-64
2022/09/26 03:26:29;;;;;;;9.00;3.35;;;11.60;99.90;;;;;;5052090;28;20016;-66
2022/09/26 03:28:55;;;;;;;5.00;3.17;;;11.60;99.90;;;;;;5052410;28;20021;-65
2022/09/26 03:31:23;;;;;;;6.63;3.83;;;11.70;99.90;;;;;;5052559;28;20037;-62
2022/09/26 03:33:52;;;;;;;7.45;3.40;;;11.60;99.90;;;;;;5051547;28;20021;-60
2022/09/26 03:36:21;;;;;;;6.15;3.40;;;11.60;99.90;;;;;;5052205;28;20477;-57
2022/09/26 03:38:46;;;;;;;7.82;3.60;;;11.60;99.90;;;;;;5051517;28;20052;-62
2022/09/26 03:41:12;;;;;;;6.20;3.15;;;11.60;99.90;;;;;;5052333;28;20504;-58
2022/09/26 03:43:38;;;;;;;5.70;2.90;;;11.60;99.90;;;;;;5052349;28;20051;-60
2022/09/26 03:46:05;;;;;;;4.97;3.05;;;11.60;99.90;;;;;;5051609;28;20373;-63
2022/09/26 03:48:32;;;;;;;6.68;3.80;;;11.50;99.90;;;;;;5052230;28;20017;-63
2022/09/26 03:51:06;;;;;;;4.35;2.97;;;11.50;99.90;;;;;;5051990;28;20029;-64
2022/09/26 03:53:33;;;;;;;4.55;2.65;;;11.50;99.90;;;;;;5051686;28;20190;-59
2022/09/26 03:56:11;;;;;;;6.13;3.50;;;11.50;99.90;;;;;;5052335;28;20056;-66
2022/09/26 03:58:37;;;;;;;10.48;3.35;;;11.40;99.90;;;;;;5052313;28;20032;-65
2022/09/26 04:01:11;;;;;;;6.10;3.22;;;11.40;99.90;;;;;;5051664;28;20051;-64
2022/09/26 04:03:38;;;;;;;9.00;3.20;;;11.40;99.90;;;;;;5052245;28;20034;-59
2022/09/26 04:06:07;;;;;;;7.38;3.10;;;11.30;99.90;;;;;;5051901;28;20025;-57
2022/09/26 04:08:33;;;;;;;6.20;3.53;;;11.30;99.90;;;;;;5051157;28;20029;-57
2022/09/26 04:11:11;;;;;;;7.00;3.15;;;11.30;99.90;;;;;;5051814;28;20037;-59
2022/09/26 04:13:36;;;;;;;7.82;3.42;;;11.20;99.90;;;;;;5051907;28;20025;-59
2022/09/26 04:16:04;;;;;;;6.05;3.30;;;11.20;99.90;;;;;;5051080;28;20473;-58
2022/09/26 04:18:31;;;;;;;6.30;3.50;;;11.20;99.90;;;;;;5051866;28;20118;-57
2022/09/26 04:21:02;;;;;;;5.82;3.40;;;11.20;99.90;;;;;;5050963;28;20044;-65
2022/09/26 04:23:29;;;;;;;5.85;3.55;;;11.20;99.90;;;;;;5053433;28;20017;-65
2022/09/26 04:25:55;;;;;;;6.35;3.28;;;11.20;99.90;;;;;;5055642;28;20025;-58
2022/09/26 04:28:22;;;;;;;6.63;3.50;;;11.20;99.90;;;;;;5054925;28;20075;-60
2022/09/26 04:30:48;;;;;;;4.43;2.92;;;11.10;99.90;;;;;;5055445;28;20035;-59
2022/09/26 04:33:14;;;;;;;7.07;3.28;;;11.10;99.90;;;;;;5055687;28;20039;-59
2022/09/26 04:35:39;;;;;;;5.90;3.05;;;11.10;99.90;;;;;;5055047;28;20028;-60
2022/09/26 04:38:05;;;;;;;6.50;3.13;;;11.20;99.90;;;;;;5049871;28;20078;-57
2022/09/26 04:40:31;;;;;;;5.40;3.55;;;11.20;99.90;;;;;;5054046;28;20020;-56
2022/09/26 04:42:57;;;;;;;10.82;3.13;;;11.10;99.90;;;;;;5053261;28;20350;-57
2022/09/26 04:45:23;;;;;;;5.13;2.92;;;11.10;99.90;;;;;;5054939;28;20434;-58
2022/09/26 04:47:49;;;;;;;4.43;3.05;;;11.20;99.90;;;;;;5053932;28;20108;-63
2022/09/26 04:50:15;;;;;;;6.65;2.92;;;11.10;99.90;;;;;;5056961;28;20056;-60
2022/09/26 04:52:40;;;;;;;9.43;3.50;;;11.20;99.90;;;;;;5055896;28;20515;-57
2022/09/26 04:55:06;;;;;;;6.65;2.88;;;11.10;99.90;;;;;;5055444;28;20496;-59
2022/09/26 04:57:32;;;;;;;6.40;3.60;;;11.10;99.90;;;;;;5056550;28;20476;-59
2022/09/26 04:59:58;;;;;;;6.28;2.70;;;11.10;99.90;;;;;;5053326;28;20035;-58
2022/09/26 05:02:23;;;;;;;5.65;2.95;;;11.20;99.90;;;;;;5055625;28;20029;-58
2022/09/26 05:04:50;;;;;;;7.15;3.03;;;11.20;99.90;;;;;;5063054;28;20082;-60
2022/09/26 05:07:17;;;;;;;4.97;2.80;;;11.20;99.90;;;;;;5062277;28;20017;-60
2022/09/26 05:09:43;;;;;;;5.85;3.03;;;11.20;99.90;;;;;;5053819;28;20109;-61
2022/09/26 05:12:09;;;;;;;8.25;3.53;;;11.20;99.90;;;;;;5051734;28;20108;-63
2022/09/26 05:14:35;;;;;;;6.45;3.80;;;11.20;99.90;;;;;;5053620;28;20105;-61
2022/09/26 05:17:01;;;;;;;5.28;2.85;;;11.20;99.90;;;;;;5054024;28;20075;-63
2022/09/26 05:19:27;;;;;;;6.00;3.30;;;11.20;99.90;;;;;;5057656;28;20016;-65
2022/09/26 05:21:53;;;;;;;4.82;2.75;;;11.20;99.90;;;;;;5048680;28;20025;-62
2022/09/26 05:27:05;;;;;;;5.03;2.88;;;11.10;99.90;;;;;;5034513;28;20123;-59
2022/09/26 05:29:30;;;;;;;6.97;2.42;;;11.10;99.90;;;;;;5038986;28;20041;-60
2022/09/26 05:31:56;;;;;;;5.28;2.65;;;11.20;99.90;;;;;;5032144;28;20140;-66
2022/09/26 05:34:23;;;;;;;5.65;2.40;;;11.20;99.90;;;;;;5039963;28;20017;-59
2022/09/26 05:36:50;;;;;;;6.18;2.72;;;11.20;99.90;;;;;;5052840;28;20028;-60
2022/09/26 05:42:03;;;;;;;6.80;2.92;;;11.20;99.90;;;;;;5037659;28;20162;-58
2022/09/26 05:44:29;;;;;;;3.97;2.53;;;11.20;99.90;;;;;;5032833;28;20053;-56
2022/09/26 05:46:56;;;;;;;6.18;3.17;;;11.20;99.90;;;;;;5040704;28;20479;-57
2022/09/26 05:49:21;;;;;;;7.72;3.58;;;11.20;99.90;;;;;;5055625;28;20112;-65
2022/09/26 05:51:47;;;;;;;8.77;3.53;;;11.20;99.90;;;;;;5052556;28;20124;-61
2022/09/26 05:54:13;;;;;;;6.43;3.35;;;11.20;99.90;;;;;;5052388;28;20064;-64
2022/09/26 05:56:38;;;;;;;8.18;4.55;;;11.10;99.90;;;;;;5053847;28;20070;-63
2022/09/26 05:59:05;;;;;;;7.13;3.53;;;11.10;99.90;;;;;;5055052;28;20101;-53
2022/09/26 06:01:32;;;;;;;10.75;4.05;;;11.10;99.90;;;;;;5053010;28;20492;-60
2022/09/26 06:03:58;;;;;;;7.20;3.55;;;11.10;99.90;;;;;;5053687;28;20029;-63
2022/09/26 06:06:23;;;;;;;8.77;3.95;;;11.10;99.90;;;;;;5052877;28;20461;-67
2022/09/26 06:08:49;;;;;;;7.13;3.22;;;11.00;99.90;;;;;;5053597;28;20037;-59
2022/09/26 06:11:17;;;;;;;6.78;3.17;;;11.10;99.90;;;;;;5053643;28;20028;-61
2022/09/26 06:13:44;;;;;;;9.10;2.92;;;11.00;99.90;;;;;;5052909;28;20025;-61
2022/09/26 06:16:13;;;;;;;5.80;3.10;;;11.10;99.90;;;;;;5053709;28;20115;-65
2022/09/26 06:18:40;;;;;;;7.03;3.30;;;11.10;99.90;;;;;;5053584;28;20017;-54
2022/09/26 06:21:08;;;;;;;5.70;2.58;;;11.10;99.90;;;;;;5053075;28;20428;-61
2022/09/26 06:23:34;;;;;;;7.00;3.63;;;11.10;99.90;;;;;;5053346;28;20366;-62
2022/09/26 06:26:02;;;;;;;5.80;3.03;;;11.10;99.90;;;;;;5053392;28;20481;-62
2022/09/26 06:28:29;;;;;;;9.98;3.83;;;11.10;99.90;;;;;;5052645;28;20025;-56
2022/09/26 06:30:55;;;;;;;7.82;3.50;;;11.20;99.90;;;;;;5053359;28;20036;-51
2022/09/26 06:33:21;;;;;;;8.57;4.05;;;11.20;99.90;;;;;;5053392;28;20013;-57
2022/09/26 06:35:47;;;;;;;7.68;3.03;;;11.20;99.90;;;;;;5052730;28;20024;-54
2022/09/26 06:38:13;;;;;;;4.78;2.72;;;11.30;99.90;;;;;;5053190;28;20017;-56
2022/09/26 06:40:38;;;;;;;4.32;2.92;;;11.30;99.90;;;;;;5053095;28;20017;-53
2022/09/26 06:43:04;;;;;;;7.50;2.88;;;11.30;99.90;;;;;;5052559;28;20021;-55
2022/09/26 06:45:30;;;;;;;6.22;2.60;;;11.30;99.90;;;;;;5052384;28;20025;-54
2022/09/26 06:47:59;;;;;;;5.32;2.80;;;11.30;99.90;;;;;;5052926;28;20033;-57
2022/09/26 06:50:25;;;;;;;7.88;2.80;;;11.40;99.90;;;;;;5052185;28;20039;-58
2022/09/26 06:52:50;;;;;;;4.43;2.63;;;11.40;99.90;;;;;;5052658;28;20108;-57
2022/09/26 06:55:16;;;;;;;5.95;3.22;;;11.50;99.90;;;;;;5052770;28;20025;-56
2022/09/26 06:57:42;;;;;;;6.43;2.72;;;11.60;99.90;;;;;;5052092;28;20021;-61
2022/09/26 07:00:14;;;;;;;6.97;3.00;;;11.60;99.90;;;;;;5053369;28;20353;-53
2022/09/26 07:02:53;;;;;;;4.88;2.83;;;11.70;99.90;;;;;;5052155;28;20017;-54
2022/09/26 07:05:20;;;;;;;6.40;2.78;;;11.70;99.90;;;;;;5052598;28;20620;-55
2022/09/26 07:07:47;;;;;;;8.45;3.08;;;11.70;99.90;;;;;;5052594;28;20382;-57
2022/09/26 07:10:17;;;;;;;5.88;3.13;;;11.70;99.90;;;;;;5061046;28;20032;-59
2022/09/26 07:12:46;;;;;;;5.75;3.60;;;11.70;99.90;;;;;;5061422;28;20029;-61
2022/09/26 07:15:14;;;;;;;5.38;3.28;;;11.70;99.90;;;;;;5052813;28;20024;-61
2022/09/26 07:17:41;;;;;;;6.57;3.75;;;11.70;99.90;;;;;;5051737;28;20025;-60
2022/09/26 07:20:09;;;;;;;7.68;3.35;;;11.70;99.90;;;;;;5052486;28;20048;-61
2022/09/26 07:22:35;;;;;;;6.93;3.33;;;11.80;99.90;;;;;;5052590;28;20035;-59
2022/09/26 07:25:01;;;;;;;10.02;5.18;;;11.80;99.90;;;;;;5051767;28;20112;-64
2022/09/26 07:27:27;;;;;;;8.57;4.00;;;11.80;99.90;;;;;;5052181;28;20430;-63
2022/09/26 07:29:52;;;;;;;6.43;3.40;;;11.70;99.90;;;;;;5052536;28;20029;-66
2022/09/26 07:32:18;;;;;;;7.80;3.92;;;11.80;99.90;;;;;;5051634;28;20504;-60
2022/09/26 07:34:44;;;;;;;9.38;3.67;;;11.70;99.90;;;;;;5052281;28;20238;-52
2022/09/26 07:37:09;;;;;;;10.50;3.88;;;11.80;99.90;;;;;;5052333;28;20029;-54
2022/09/26 07:39:35;;;;;;;8.50;3.67;;;11.80;99.90;;;;;;5051722;28;20032;-59
2022/09/26 07:42:02;;;;;;;9.40;4.15;;;11.70;99.90;;;;;;5052551;28;20021;-52
2022/09/26 07:44:28;;;;;;;10.32;3.88;;;11.70;99.90;;;;;;5052444;28;20017;-57
2022/09/26 07:52:22;;;;;;;8.77;4.55;;;11.80;99.90;;;;;;5051583;28;20063;-58
2022/09/26 07:54:47;;;;;;;10.68;4.78;;;11.80;99.90;;;;;;5051972;28;20021;-56
2022/09/26 07:57:13;;;;;;;8.82;5.50;;;11.80;99.90;;;;;;5051922;28;20164;-58
2022/09/26 07:59:39;;;;;;;9.02;4.45;;;11.80;99.90;;;;;;5055174;28;20451;-51
2022/09/26 08:02:05;;;;;;;7.93;4.30;;;11.80;99.90;;;;;;5056140;28;20029;-57
2022/09/26 08:04:31;;;;;;;6.80;3.63;;;11.80;99.90;;;;;;5055967;28;20017;-57
2022/09/26 08:06:58;;;;;;;5.90;3.70;;;11.80;99.90;;;;;;5055357;28;20389;-65
2022/09/26 08:09:24;;;;;;;7.95;3.60;;;11.80;99.90;;;;;;5055742;28;20054;-57
2022/09/26 08:11:49;;;;;;;8.85;3.97;;;11.90;99.90;;;;;;5055751;28;20511;-58
2022/09/26 08:14:15;;;;;;;8.25;3.67;;;12.00;99.90;;;;;;5055235;28;20013;-59
2022/09/26 08:16:41;;;;;;;6.82;3.85;;;12.00;99.90;;;;;;5055828;28;20025;-63
2022/09/26 08:19:08;;;;;;;8.75;3.80;;;12.10;99.90;;;;;;5055705;28;20048;-65
2022/09/26 08:21:34;;;;;;;6.57;3.25;;;12.10;99.90;;;;;;5055056;28;20033;-56
2022/09/26 08:24:01;;;;;;;8.77;3.72;;;12.20;99.90;;;;;;5055530;28;20013;-65
2022/09/26 08:26:27;;;;;;;5.80;3.40;;;12.20;99.90;;;;;;5055715;28;20083;-55
2022/09/26 08:28:53;;;;;;;12.02;5.03;;;12.30;99.90;;;;;;5055079;28;20021;-53
2022/09/26 08:31:19;;;;;;;8.20;4.40;;;12.30;99.90;;;;;;5055571;28;20357;-60
2022/09/26 08:33:46;;;;;;;8.15;4.18;;;12.40;99.90;;;;;;5055425;28;20108;-62
2022/09/26 08:36:14;;;;;;;8.57;3.60;;;12.30;99.90;;;;;;5054775;28;20044;-65
2022/09/26 08:38:40;;;;;;;6.75;3.17;;;12.40;99.90;;;;;;5055163;28;20048;-65
2022/09/26 08:41:35;;;;;;;6.55;3.45;;;12.40;99.90;;;;;;5055113;28;20136;-54
2022/09/26 08:44:40;;;;;;;7.03;3.25;;;12.40;99.90;;;;;;5055468;28;20083;-56
2022/09/26 08:47:42;;;;;;;6.97;4.22;;;12.40;99.90;;;;;;5055191;28;20045;-56
2022/09/26 08:50:31;;;;;;;;;;;12.40;99.90;;;;;;5054938;28;20366;-59
2022/09/26 08:53:02;;;;;;;7.32;3.75;;;12.40;99.90;;;;;;5054546;28;19913;-52
2022/09/26 08:55:36;;;;;;;;;;;12.40;99.90;;;;;;5053676;28;20014;-63
2022/09/26 08:58:11;;;;;;;7.05;3.33;;;12.30;99.90;;;;;;5053856;28;19912;-55
2022/09/26 09:00:37;;;;;;;9.90;3.10;;;12.40;99.90;;;;;;5053925;28;20101;-51
2022/09/26 09:03:17;;;;;;;5.47;2.90;;;12.50;99.90;;;;;;5053121;28;20107;-60
2022/09/26 09:05:48;;;;;;;4.85;2.70;;;12.50;99.90;;;;;;5053833;28;20053;-55
2022/09/26 09:08:37;;;;;;;7.57;2.78;;;12.60;99.90;;;;;;5053511;28;20029;-54
2022/09/26 09:11:38;;;;;;;7.20;3.25;;;12.70;99.90;;;;;;5053102;28;20037;-58
2022/09/26 09:14:22;;;;;;;3.88;2.40;;;12.80;99.90;;;;;;5054560;28;20032;-57
2022/09/26 09:17:20;;;;;;;7.90;3.05;;;12.80;99.90;;;;;;5053345;28;20036;-56
2022/09/26 09:20:09;;;;;;;5.20;2.33;;;12.80;99.90;;;;;;5059073;28;20040;-55
2022/09/26 09:23:11;;;;;;;5.72;3.70;;;12.70;99.90;;;;;;5054229;28;20476;-64
2022/09/26 09:26:04;;;;;;;6.65;3.72;;;12.70;99.90;;;;;;5052020;28;20138;-66
2022/09/26 09:28:59;;;;;;;5.70;3.13;;;12.70;99.90;;;;;;5053655;28;20025;-65
2022/09/26 09:31:31;;;;;;;5.65;3.13;;;12.70;99.90;;;;;;5052912;28;20105;-66
2022/09/26 09:34:00;;;;;;;7.88;2.88;;;12.70;99.90;;;;;;5053537;28;20120;-66
2022/09/26 09:36:52;;;;;;;7.40;3.47;;;12.70;99.90;;;;;;5053735;28;20029;-67
2022/09/26 09:39:34;;;;;;;6.47;3.90;;;12.70;99.90;;;;;;5052969;28;20021;-57
2022/09/26 09:42:23;;;;;;;6.70;3.17;;;12.70;99.90;;;;;;5053540;28;20020;-60
2022/09/26 09:44:58;;;;;;;7.63;2.95;;;12.70;99.90;;;;;;5052845;28;20033;-53
2022/09/26 09:47:26;;;;;;;7.43;3.10;;;12.70;99.90;;;;;;5053086;28;20074;-58
2022/09/26 09:49:52;;;;;;;5.95;2.83;;;12.80;99.90;;;;;;5053027;28;20021;-66
2022/09/26 09:52:24;;;;;;;7.95;3.33;;;12.90;99.90;;;;;;5014873;28;1072607;-65
2022/09/26 09:55:00;;;;;;;6.32;3.05;;;12.90;99.90;;;;;;5054514;28;20539;-61
2022/09/26 09:58:04;;;;;;;5.68;3.00;;;12.90;99.90;;;;;;5054178;28;20460;-66
2022/09/26 10:00:34;;;;;;;6.82;3.47;;;12.90;99.90;;;;;;5059608;28;20445;-65
2022/09/26 10:03:25;;;;;;;6.05;3.35;;;13.00;99.90;;;;;;5054006;28;20520;-64
2022/09/26 10:05:59;;;;;;;12.18;3.50;;;13.10;99.90;;;;;;5053225;28;20385;-61
2022/09/26 10:08:31;;;;;;;8.30;3.17;;;13.10;99.90;;;;;;5054095;28;20048;-61
2022/09/26 10:11:02;;;;;;;5.88;3.22;;;13.10;99.90;;;;;;5053813;28;20025;-54
2022/09/26 10:13:30;;;;;;;;;;;13.30;99.90;;;;;;5053701;28;20082;-61
2022/09/26 10:16:01;;;;;;;4.78;3.00;;;13.30;99.90;;;;;;5053702;28;19911;-57
2022/09/26 10:18:27;;;;;;;6.35;3.13;;;13.40;99.90;;;;;;5053693;28;20029;-58
2022/09/26 10:20:56;;;;;;;5.60;3.15;;;13.40;99.90;;;;;;5052413;28;20021;-60
2022/09/26 10:23:45;;;;;;;5.18;2.72;;;13.40;99.90;;;;;;5053487;28;20485;-56
2022/09/26 10:26:14;;;;;;;7.03;4.47;;;13.40;99.90;;;;;;5053513;28;20103;-57
2022/09/26 10:28:57;;;;;;;6.80;4.03;;;13.40;99.90;;;;;;5052957;28;20028;-57
2022/09/26 10:31:33;;;;;;;9.45;5.72;;;13.40;99.90;;;;;;5053664;28;20044;-56
2022/09/26 10:34:26;;;;;;;8.10;4.97;;;13.30;99.90;;;;;;5052970;28;20021;-55
2022/09/26 10:36:52;;;;;;;8.40;4.10;;;13.20;99.90;;;;;;5053413;28;20044;-59
2022/09/26 10:42:18;;;;;;;8.68;4.68;;;13.10;99.90;;;;;;5052856;28;20405;-62
2022/09/26 10:44:46;;;;;;;7.65;4.10;;;13.10;99.90;;;;;;5053230;28;20025;-64
2022/09/26 10:47:15;;;;;;;6.70;3.70;;;13.10;99.90;;;;;;5053420;28;20100;-58
2022/09/26 10:49:49;;;;;;;4.85;3.22;;;13.00;99.90;;;;;;5052476;28;20021;-57
2022/09/26 10:52:42;;;;;;;8.43;6.25;;;13.00;99.90;;;;;;5053296;28;20052;-57
2022/09/26 10:55:24;;;;;;;8.10;4.75;;;13.10;99.90;;;;;;5052338;28;20041;-55
2022/09/26 10:58:16;;;;;;;13.30;5.43;;;13.10;99.90;;;;;;5053039;28;20032;-58
2022/09/26 11:00:49;;;;;;;7.25;4.70;;;13.10;99.90;;;;;;5053084;28;20025;-56
2022/09/26 11:03:18;;;;;;;8.05;4.65;;;12.90;99.90;;;;;;5052273;28;20473;-55
2022/09/26 11:05:55;;;;;;;8.75;4.43;;;12.90;99.90;;;;;;5052872;28;20469;-59
2022/09/26 11:08:42;;;;;;;11.82;7.15;;;12.90;99.90;;;;;;5050445;28;20025;-54
2022/09/26 11:11:14;;;;;;;10.27;6.88;;;12.90;99.90;;;;;;5052974;28;20147;-52
2022/09/26 11:14:02;;;;;;;10.82;4.90;;;12.80;99.90;;;;;;5052832;28;20477;-52
2022/09/26 11:16:35;;;;;;;10.38;5.13;;;12.90;99.90;;;;;;5053061;28;20052;-56
2022/09/26 11:19:01;;;;;;;9.07;5.40;;;12.90;99.90;;;;;;5052776;28;20393;-55
2022/09/26 11:21:48;;;;;;;9.80;5.53;;;13.00;99.90;;;;;;5052012;28;20028;-55
2022/09/26 11:24:49;;;;;;;8.23;5.05;;;13.10;99.90;;;;;;5052534;28;20465;-51
2022/09/26 11:27:22;;;;;;;7.75;4.72;;;13.10;99.90;;;;;;5053612;28;20032;-56
2022/09/26 11:29:52;;;;;;;11.80;7.68;;;13.10;99.90;;;;;;5057294;28;20025;-56
2022/09/26 11:32:29;;;;;;;8.85;5.20;;;13.10;99.90;;;;;;5053445;28;20028;-57
2022/09/26 11:35:01;;;;;;;9.35;4.35;;;13.10;99.90;;;;;;5052828;28;20056;-58
2022/09/26 11:37:52;;;;;;;8.88;5.03;;;13.00;99.90;;;;;;5052734;28;20469;-59
2022/09/26 11:40:32;;;;;;;6.72;3.85;;;13.00;99.90;;;;;;5052664;28;20104;-56
2022/09/26 11:43:24;;;;;;;5.90;3.50;;;13.00;99.90;;;;;;5052002;28;20025;-55
2022/09/26 11:46:09;;;;;;;6.45;3.38;;;13.00;99.90;;;;;;5052502;28;20386;-59
2022/09/26 11:48:38;;;;;;;4.85;2.83;;;12.90;99.90;;;;;;5052610;28;20032;-58
2022/09/26 11:51:44;;;;;;;7.32;3.70;;;12.90;99.90;;;;;;5051842;28;20033;-52
2022/09/26 11:54:34;;;;;;;5.38;3.15;;;12.90;99.90;;;;;;5052422;28;20056;-56
2022/09/26 11:57:02;;;;;;;7.68;4.00;;;12.80;99.90;;;;;;5051771;28;20103;-59
2022/09/26 11:59:47;;;;;;;7.38;3.63;;;12.80;99.90;;;;;;5052418;28;20073;-59
2022/09/26 12:02:48;;;;;;;6.97;3.67;;;12.80;99.90;;;;;;5052380;28;20029;-53
2022/09/26 12:05:51;;;;;;;5.65;3.45;;;12.80;99.90;;;;;;5052066;28;20021;-59
2022/09/26 12:08:46;;;;;;;6.80;3.78;;;12.80;99.90;;;;;;5052191;28;20025;-56
2022/09/26 12:11:32;;;;;;;5.03;3.20;;;12.70;99.90;;;;;;5051607;28;20025;-59
2022/09/26 12:14:08;;;;;;;6.68;3.15;;;12.70;99.90;;;;;;5052249;28;20029;-54
2022/09/26 12:16:34;;;;;;;4.82;3.05;;;12.70;99.90;;;;;;5052307;28;20465;-56
2022/09/26 12:19:15;;;;;;;5.82;2.95;;;12.70;99.90;;;;;;5051508;28;20029;-56
2022/09/26 12:22:29;;;;;;;5.47;3.15;;;12.70;99.90;;;;;;5052393;28;20029;-60
2022/09/26 12:25:22;;;;;;;5.25;3.00;;;12.70;99.90;;;;;;5051876;28;20034;-59
2022/09/26 12:28:13;;;;;;;4.70;3.30;;;12.80;99.90;;;;;;5052497;28;20025;-59
2022/09/26 12:30:52;;;;;;;4.23;3.00;;;12.70;99.90;;;;;;5052226;28;20149;-55
2022/09/26 12:33:32;;;;;;;6.07;3.40;;;12.70;99.90;;;;;;5051661;28;20369;-56
2022/09/26 12:36:23;;;;;;;5.13;2.85;;;12.70;99.90;;;;;;5052280;28;20025;-61
2022/09/26 12:39:27;;;;;;;7.53;3.28;;;12.80;99.90;;;;;;5051801;28;20021;-57
2022/09/26 12:42:26;;;;;;;8.40;3.72;;;12.80;99.90;;;;;;5052082;28;20519;-58
2022/09/26 12:45:16;;;;;;;7.70;3.08;;;12.80;99.90;;;;;;5054400;28;20032;-57
2022/09/26 12:48:14;;;;;;;5.18;3.28;;;12.70;99.90;;;;;;5055046;28;20466;-59
2022/09/26 12:50:47;;;;;;;5.75;3.28;;;12.80;99.90;;;;;;5055573;28;20029;-58
2022/09/26 12:53:45;;;;;;;4.60;2.70;;;12.80;99.90;;;;;;5054800;28;20544;-60
2022/09/26 12:56:21;;;;;;;5.78;3.20;;;12.70;99.90;;;;;;5039557;28;20021;-61
2022/09/26 12:59:25;;;;;;;4.82;3.05;;;12.70;99.90;;;;;;5056015;28;20104;-55
2022/09/26 13:02:15;;;;;;;5.05;2.70;;;12.70;99.90;;;;;;5050594;28;20508;-60
2022/09/26 13:05:05;;;;;;;4.20;2.67;;;12.80;99.90;;;;;;5054917;28;20389;-59
2022/09/26 13:08:03;;;;;;;4.15;2.50;;;12.70;99.90;;;;;;5044791;28;20021;-57
2022/09/26 13:10:49;;;;;;;5.35;2.95;;;12.80;99.90;;;;;;5045330;28;20037;-59
2022/09/26 13:13:49;;;;;;;4.53;2.90;;;12.80;99.90;;;;;;5054144;28;20485;-57
2022/09/26 13:16:39;;;;;;;4.47;2.90;;;12.90;99.90;;;;;;5054502;28;20385;-66
2022/09/26 13:19:35;;;;;;;4.75;3.20;;;13.00;99.90;;;;;;5054358;28;20025;-65
2022/09/26 13:22:19;;;;;;;4.25;2.65;;;13.10;99.90;;;;;;5056592;28;20381;-63
2022/09/26 13:24:57;;;;;;;3.42;2.47;;;13.20;99.90;;;;;;5052567;28;20090;-57
2022/09/26 13:28:08;;;;;;;4.97;2.65;;;13.20;99.90;;;;;;5055326;28;20083;-61
2022/09/26 13:30:45;;;;;;;4.57;2.28;;;13.20;99.90;;;;;;5043391;28;20049;-55
2022/09/26 13:33:20;;;;;;;4.18;2.35;;;13.10;99.90;;;;;;5064259;28;20218;-59
2022/09/26 13:35:49;;;;;;;3.67;2.30;;;13.10;99.90;;;;;;5053688;28;20053;-56
2022/09/26 13:38:50;;;;;;;5.03;2.40;;;13.00;99.90;;;;;;5058108;28;20059;-58
2022/09/26 13:41:25;;;;;;;4.78;2.20;;;13.00;99.90;;;;;;5042993;28;20032;-60